Terminal Aerodrome Forecast
Issued by NWS

Home | Current Version | Previous Version | Text Only | Print | Product List | Glossary Off
Versions: 1 2 3 4 5 6 7 8 9 10 11 12 13 14 15 16

442
FTUS43 KMPX 302337
TAFAXN
TAF
KAXN 302337Z 0100/0124 33009KT P6SM -SN OVC008
     FM010400 34009KT 5SM -SN BR OVC005
     FM011400 34012KT P6SM OVC009
     FM011800 33008KT P6SM OVC015=

USA.gov is the U.S. government's official web portal to all federal, state and local government web resources and services.